Time;durP1;ratioP1;P1;durP2;ratioP2;P2;SDS_P1;SDS_P2;PMS_P1;PMS_P2;Temp;Humidity;BMP_temperature;BMP_pressure;BME280_temperature;BME280_humidity;BME280_pressure;Samples;Min_cycle;Max_cycle;Signal;HPM_P1;HPM_P2
2023/09/02 00:01:33;;;;;;;2.95;1.80;;;;;;;;;;4970887;28;20122;-66
2023/09/02 00:04:01;;;;;;;4.03;2.05;;;;;;;;;;4962558;28;20039;-66
2023/09/02 00:06:26;;;;;;;3.13;2.05;;;;;;;;;;4969816;28;20041;-66
2023/09/02 00:08:51;;;;;;;5.32;2.50;;;;;;;;;;4963533;28;20027;-66
2023/09/02 00:11:17;;;;;;;4.88;2.05;;;;;;;;;;4968313;28;20182;-66
2023/09/02 00:13:42;;;;;;;3.85;1.88;;;;;;;;;;4964483;28;20046;-67
2023/09/02 00:16:08;;;;;;;3.97;2.22;;;;;;;;;;4967002;28;20516;-66
2023/09/02 00:18:33;;;;;;;3.55;2.30;;;;;;;;;;4966111;28;20035;-66
2023/09/02 00:20:58;;;;;;;5.13;2.60;;;;;;;;;;4965851;28;20034;-66
2023/09/02 00:23:24;;;;;;;4.18;2.15;;;;;;;;;;4967246;28;20407;-66
2023/09/02 00:25:49;;;;;;;5.07;2.50;;;;;;;;;;4972144;28;20452;-66
2023/09/02 00:28:16;;;;;;;4.25;2.50;;;;;;;;;;4987488;28;20129;-66
2023/09/02 00:30:41;;;;;;;4.18;2.03;;;;;;;;;;4968828;28;20117;-66
2023/09/02 00:33:07;;;;;;;4.70;2.30;;;;;;;;;;4962396;28;20121;-66
2023/09/02 00:35:32;;;;;;;5.97;2.30;;;;;;;;;;4969953;28;20118;-66
2023/09/02 00:37:58;;;;;;;3.67;2.00;;;;;;;;;;4961053;28;20034;-66
2023/09/02 00:40:27;;;;;;;3.40;2.22;;;;;;;;;;4971317;28;20031;-66
2023/09/02 00:42:54;;;;;;;4.68;2.50;;;;;;;;;;4959930;28;20038;-67
2023/09/02 00:45:21;;;;;;;3.22;2.13;;;;;;;;;;4971660;28;20059;-66
2023/09/02 00:47:50;;;;;;;4.95;2.33;;;;;;;;;;4958935;28;20396;-66
2023/09/02 00:50:15;;;;;;;6.22;2.70;;;;;;;;;;4972314;28;20035;-66
2023/09/02 00:52:41;;;;;;;7.35;2.60;;;;;;;;;;4958478;28;20078;-66
2023/09/02 00:55:06;;;;;;;5.60;2.90;;;;;;;;;;4973579;28;20026;-66
2023/09/02 00:57:32;;;;;;;5.25;2.67;;;;;;;;;;4957142;28;20039;-66
2023/09/02 00:59:58;;;;;;;9.85;5.38;;;;;;;;;;4974588;28;20034;-66
2023/09/02 01:02:24;;;;;;;6.97;4.07;;;;;;;;;;4960058;28;20058;-66
2023/09/02 01:04:50;;;;;;;5.13;2.53;;;;;;;;;;4978501;28;20474;-66
2023/09/02 01:07:17;;;;;;;7.53;2.70;;;;;;;;;;4991470;28;20396;-66
2023/09/02 01:09:43;;;;;;;4.05;2.63;;;;;;;;;;4972569;28;20400;-66
2023/09/02 01:12:10;;;;;;;3.50;2.30;;;;;;;;;;4957300;28;20031;-66
2023/09/02 01:14:35;;;;;;;5.20;2.40;;;;;;;;;;4973280;28;20046;-66
2023/09/02 01:17:01;;;;;;;3.45;2.25;;;;;;;;;;4956511;28;20040;-66
2023/09/02 01:19:28;;;;;;;3.28;2.28;;;;;;;;;;4974702;28;20030;-66
2023/09/02 01:22:25;;;;;;;5.35;2.17;;;;;;;;;;4955651;29;20031;-66
2023/09/02 01:25:16;;;;;;;6.78;2.40;;;;;;;;;;4958830;28;20476;-66
2023/09/02 01:28:16;;;;;;;3.95;2.40;;;;;;;;;;4968282;28;20041;-66
2023/09/02 01:30:44;;;;;;;3.90;2.55;;;;;;;;;;4957836;28;20042;-66
2023/09/02 01:33:10;;;;;;;3.20;2.25;;;;;;;;;;4965029;28;20023;-66
2023/09/02 01:35:37;;;;;;;4.05;2.40;;;;;;;;;;4964564;28;20029;-66
2023/09/02 01:38:04;;;;;;;4.55;2.42;;;;;;;;;;4965661;28;20039;-66
2023/09/02 01:40:32;;;;;;;5.85;2.60;;;;;;;;;;4962937;28;20118;-66
2023/09/02 01:42:59;;;;;;;6.43;2.40;;;;;;;;;;4974621;28;20031;-65
2023/09/02 01:45:27;;;;;;;4.10;2.47;;;;;;;;;;4966975;28;20031;-66
2023/09/02 01:47:53;;;;;;;4.80;2.47;;;;;;;;;;4955043;28;20035;-66
2023/09/02 01:50:23;;;;;;;4.53;2.47;;;;;;;;;;4961818;28;20038;-65
2023/09/02 01:52:48;;;;;;;6.80;2.90;;;;;;;;;;4967574;28;20397;-65
2023/09/02 01:55:16;;;;;;;4.05;2.30;;;;;;;;;;4960804;28;20062;-66
2023/09/02 01:57:41;;;;;;;4.68;2.40;;;;;;;;;;4968688;28;20035;-65
2023/09/02 02:00:08;;;;;;;4.20;2.30;;;;;;;;;;4959162;28;20579;-66
2023/09/02 02:02:36;;;;;;;5.00;2.70;;;;;;;;;;4969505;28;20035;-66
2023/09/02 02:05:05;;;;;;;6.00;3.05;;;;;;;;;;4959187;28;20114;-66
2023/09/02 02:07:35;;;;;;;4.30;2.67;;;;;;;;;;4969797;28;20036;-66
2023/09/02 02:10:04;;;;;;;3.65;2.67;;;;;;;;;;4958477;28;20042;-66
2023/09/02 02:12:31;;;;;;;6.22;2.50;;;;;;;;;;4970168;28;20040;-66
2023/09/02 02:14:56;;;;;;;4.85;2.70;;;;;;;;;;4962002;28;20051;-66
2023/09/02 02:17:22;;;;;;;4.85;2.88;;;;;;;;;;4967186;28;20039;-66
2023/09/02 02:19:48;;;;;;;3.72;2.80;;;;;;;;;;4964851;28;20033;-66
2023/09/02 02:22:13;;;;;;;5.72;2.80;;;;;;;;;;4983543;28;20030;-66
2023/09/02 02:24:38;;;;;;;5.13;2.67;;;;;;;;;;4984057;28;20053;-66
2023/09/02 02:27:04;;;;;;;5.90;3.00;;;;;;;;;;4965486;28;20396;-66
2023/09/02 02:29:30;;;;;;;9.50;4.15;;;;;;;;;;4962247;28;20030;-66
2023/09/02 02:31:55;;;;;;;7.03;4.10;;;;;;;;;;4966668;28;20200;-66
2023/09/02 02:34:23;;;;;;;8.10;4.95;;;;;;;;;;4960965;28;20038;-66
2023/09/02 02:36:48;;;;;;;9.25;5.22;;;;;;;;;;4963732;28;20098;-65
2023/09/02 02:39:14;;;;;;;7.47;4.90;;;;;;;;;;4963710;28;20038;-66
2023/09/02 02:41:39;;;;;;;7.03;3.28;;;;;;;;;;4964734;28;20035;-66
2023/09/02 02:44:05;;;;;;;7.03;3.63;;;;;;;;;;4962619;28;20038;-66
2023/09/02 02:46:31;;;;;;;5.20;3.15;;;;;;;;;;4966114;28;20077;-66
2023/09/02 02:48:56;;;;;;;6.10;2.75;;;;;;;;;;4961319;28;20034;-66
2023/09/02 02:51:22;;;;;;;6.10;3.20;;;;;;;;;;4967391;28;20079;-66
2023/09/02 02:53:47;;;;;;;5.70;2.85;;;;;;;;;;4969068;28;20122;-66
2023/09/02 02:56:13;;;;;;;8.07;3.22;;;;;;;;;;4963162;28;20388;-66
2023/09/02 02:58:38;;;;;;;7.05;3.40;;;;;;;;;;4965208;28;20126;-66
2023/09/02 03:01:06;;;;;;;3.55;2.47;;;;;;;;;;4969762;28;20543;-66
2023/09/02 03:03:33;;;;;;;4.32;2.70;;;;;;;;;;4985396;28;20584;-66
2023/09/02 03:06:04;;;;;;;7.40;2.75;;;;;;;;;;4966411;28;20034;-66
2023/09/02 03:08:30;;;;;;;4.15;2.90;;;;;;;;;;4961161;28;20397;-66
2023/09/02 03:10:57;;;;;;;3.28;2.50;;;;;;;;;;4967821;28;20036;-66
2023/09/02 03:13:27;;;;;;;11.90;3.20;;;;;;;;;;4963882;28;20444;-66
2023/09/02 03:15:56;;;;;;;6.78;3.00;;;;;;;;;;4971050;28;20043;-66
2023/09/02 03:18:22;;;;;;;5.63;3.13;;;;;;;;;;4963669;28;20038;-65
2023/09/02 03:20:48;;;;;;;5.47;3.30;;;;;;;;;;4970403;28;20420;-66
2023/09/02 03:23:14;;;;;;;5.53;3.03;;;;;;;;;;4962215;28;20034;-66
2023/09/02 03:25:39;;;;;;;3.80;2.80;;;;;;;;;;4972727;28;20093;-66
2023/09/02 03:28:05;;;;;;;9.38;3.33;;;;;;;;;;4960992;28;20437;-66
2023/09/02 03:30:31;;;;;;;7.13;3.10;;;;;;;;;;4973815;28;20050;-66
2023/09/02 03:32:58;;;;;;;5.97;3.10;;;;;;;;;;4960008;28;20026;-66
2023/09/02 03:35:23;;;;;;;4.25;2.80;;;;;;;;;;4974745;28;20102;-66
2023/09/02 03:37:49;;;;;;;6.75;2.83;;;;;;;;;;4962618;28;20030;-66
2023/09/02 03:40:15;;;;;;;3.95;3.00;;;;;;;;;;4981368;28;20030;-66
2023/09/02 03:42:41;;;;;;;6.35;3.20;;;;;;;;;;4991840;28;20078;-66
2023/09/02 03:45:09;;;;;;;6.93;3.03;;;;;;;;;;4973168;28;20039;-68
2023/09/02 03:47:35;;;;;;;6.68;3.65;;;;;;;;;;4960424;28;20058;-66
2023/09/02 03:50:02;;;;;;;5.13;2.97;;;;;;;;;;4972627;28;20051;-66
2023/09/02 03:52:28;;;;;;;4.80;2.63;;;;;;;;;;4959186;28;20054;-66
2023/09/02 03:54:53;;;;;;;5.60;3.00;;;;;;;;;;4975107;28;20134;-66
2023/09/02 03:57:19;;;;;;;4.70;2.92;;;;;;;;;;4958109;28;20031;-66
2023/09/02 03:59:44;;;;;;;3.85;2.85;;;;;;;;;;4975969;28;20018;-66
2023/09/02 04:02:10;;;;;;;5.82;3.15;;;;;;;;;;4957105;29;20031;-66
2023/09/02 04:04:35;;;;;;;4.13;2.97;;;;;;;;;;4975907;28;20022;-66
2023/09/02 04:07:01;;;;;;;5.95;3.30;;;;;;;;;;4957497;28;20027;-66
2023/09/02 04:09:27;;;;;;;5.80;3.25;;;;;;;;;;4972646;28;20027;-66
2023/09/02 04:11:53;;;;;;;6.85;3.22;;;;;;;;;;4957991;28;20563;-66
2023/09/02 04:14:18;;;;;;;4.78;3.15;;;;;;;;;;4975168;28;20042;-66
2023/09/02 04:16:44;;;;;;;5.05;3.17;;;;;;;;;;4956925;28;20034;-66
2023/09/02 04:19:09;;;;;;;5.85;3.17;;;;;;;;;;4976179;28;20062;-66
2023/09/02 04:21:34;;;;;;;10.35;3.60;;;;;;;;;;4991556;28;20142;-66
2023/09/02 04:24:00;;;;;;;4.82;3.50;;;;;;;;;;4972834;28;20046;-66
2023/09/02 04:26:26;;;;;;;6.95;4.45;;;;;;;;;;4957793;28;20031;-65
2023/09/02 04:28:55;;;;;;;5.22;3.47;;;;;;;;;;4974801;28;20042;-65
2023/09/02 04:31:21;;;;;;;4.63;3.05;;;;;;;;;;4957122;28;20110;-66
2023/09/02 04:33:46;;;;;;;6.78;3.50;;;;;;;;;;4975591;28;20047;-66
2023/09/02 04:36:12;;;;;;;10.15;3.70;;;;;;;;;;4956356;29;20062;-65
2023/09/02 04:38:37;;;;;;;6.55;3.47;;;;;;;;;;4975086;28;20041;-65
2023/09/02 04:41:06;;;;;;;5.03;3.30;;;;;;;;;;4957121;28;20488;-66
2023/09/02 04:43:33;;;;;;;5.07;3.38;;;;;;;;;;4974263;28;20074;-65
2023/09/02 04:46:02;;;;;;;5.38;3.75;;;;;;;;;;4957727;28;20047;-66
2023/09/02 04:48:29;;;;;;;5.60;4.10;;;;;;;;;;4973380;28;20046;-66
2023/09/02 04:50:55;;;;;;;9.60;3.63;;;;;;;;;;4958099;28;20090;-66
2023/09/02 04:53:21;;;;;;;6.07;3.55;;;;;;;;;;4972273;28;20033;-66
2023/09/02 04:55:47;;;;;;;4.70;3.10;;;;;;;;;;4959411;28;20031;-66
2023/09/02 04:58:13;;;;;;;5.05;3.35;;;;;;;;;;4971145;28;20524;-66
2023/09/02 05:00:38;;;;;;;9.80;5.53;;;;;;;;;;4989708;28;20045;-66
2023/09/02 05:03:04;;;;;;;10.50;4.28;;;;;;;;;;4980166;28;20023;-66
2023/09/02 05:05:31;;;;;;;5.90;4.18;;;;;;;;;;4961481;28;20086;-66
2023/09/02 05:07:57;;;;;;;6.97;4.15;;;;;;;;;;4968741;28;20457;-66
2023/09/02 05:10:23;;;;;;;11.05;4.30;;;;;;;;;;4962349;28;20117;-66
2023/09/02 05:12:49;;;;;;;5.43;3.92;;;;;;;;;;4967578;28;20038;-66
2023/09/02 05:15:15;;;;;;;7.10;4.15;;;;;;;;;;4963487;28;20042;-65
2023/09/02 05:17:40;;;;;;;7.07;3.92;;;;;;;;;;4966057;28;20033;-66
2023/09/02 05:20:06;;;;;;;5.20;3.70;;;;;;;;;;4964619;28;20027;-66
2023/09/02 05:22:32;;;;;;;5.47;4.05;;;;;;;;;;4965042;28;20053;-66
2023/09/02 05:24:57;;;;;;;10.95;4.20;;;;;;;;;;4965894;28;20465;-65
2023/09/02 05:27:23;;;;;;;13.63;4.57;;;;;;;;;;4963518;28;20035;-66
2023/09/02 05:29:49;;;;;;;5.45;4.18;;;;;;;;;;4967021;28;20047;-66
2023/09/02 05:32:16;;;;;;;8.00;4.80;;;;;;;;;;4962372;28;20176;-65
2023/09/02 05:34:41;;;;;;;8.93;4.50;;;;;;;;;;4967554;28;20158;-66
2023/09/02 05:37:07;;;;;;;11.43;4.10;;;;;;;;;;4967420;28;20104;-66
2023/09/02 05:39:32;;;;;;;5.88;4.18;;;;;;;;;;4984528;28;20034;-66
2023/09/02 05:41:58;;;;;;;8.73;3.92;;;;;;;;;;4965784;28;20046;-66
2023/09/02 05:44:23;;;;;;;5.95;4.15;;;;;;;;;;4963311;28;20031;-66
2023/09/02 05:46:49;;;;;;;7.43;4.30;;;;;;;;;;4966733;28;20412;-66
2023/09/02 05:49:15;;;;;;;7.93;3.83;;;;;;;;;;4961772;28;20401;-66
2023/09/02 05:51:40;;;;;;;8.43;4.28;;;;;;;;;;4967971;28;20026;-66
2023/09/02 05:54:07;;;;;;;8.23;4.30;;;;;;;;;;4960629;28;20034;-66
2023/09/02 05:56:34;;;;;;;5.55;3.97;;;;;;;;;;4969032;28;20030;-66
2023/09/02 05:59:00;;;;;;;5.88;3.95;;;;;;;;;;4959521;28;20042;-65
2023/09/02 06:01:26;;;;;;;5.85;3.97;;;;;;;;;;4969652;28;20082;-66
2023/09/02 06:03:51;;;;;;;5.75;4.13;;;;;;;;;;4958218;28;20038;-66
2023/09/02 06:06:16;;;;;;;6.82;4.07;;;;;;;;;;4971228;28;20110;-67
2023/09/02 06:08:42;;;;;;;9.63;4.82;;;;;;;;;;4956764;28;20043;-66
2023/09/02 06:11:07;;;;;;;43.60;20.67;;;;;;;;;;4972238;28;20457;-66
2023/09/02 06:13:34;;;;;;;12.07;5.50;;;;;;;;;;4959504;28;20043;-66
2023/09/02 06:16:00;;;;;;;9.45;5.25;;;;;;;;;;4978067;28;20027;-66
2023/09/02 06:18:26;;;;;;;6.80;3.95;;;;;;;;;;4989404;28;20038;-66
2023/09/02 06:20:52;;;;;;;17.13;4.90;;;;;;;;;;4970578;28;20487;-66
2023/09/02 06:23:17;;;;;;;11.00;4.47;;;;;;;;;;4957205;28;20041;-66
2023/09/02 06:25:43;;;;;;;14.25;4.25;;;;;;;;;;4971765;28;20432;-66
2023/09/02 06:28:08;;;;;;;8.82;3.90;;;;;;;;;;4955504;28;20058;-66
2023/09/02 06:30:37;;;;;;;9.52;4.45;;;;;;;;;;4972526;28;20057;-66
2023/09/02 06:33:03;;;;;;;9.30;4.25;;;;;;;;;;4955060;28;20036;-66
2023/09/02 06:35:32;;;;;;;10.95;4.68;;;;;;;;;;4973654;28;20034;-66
2023/09/02 06:37:57;;;;;;;11.02;3.80;;;;;;;;;;4954605;29;20023;-66
2023/09/02 06:40:23;;;;;;;4.68;3.38;;;;;;;;;;4973566;28;20031;-66
2023/09/02 06:42:48;;;;;;;5.43;3.20;;;;;;;;;;4955164;28;20597;-66
2023/09/02 06:45:13;;;;;;;3.95;2.67;;;;;;;;;;4972061;28;20027;-66
2023/09/02 06:47:39;;;;;;;3.72;2.20;;;;;;;;;;4959860;28;20481;-66
2023/09/02 06:50:05;;;;;;;3.55;2.28;;;;;;;;;;4974802;28;20037;-66
2023/09/02 06:52:30;;;;;;;5.55;2.40;;;;;;;;;;4961433;28;20023;-66
2023/09/02 06:54:55;;;;;;;4.95;2.17;;;;;;;;;;4989323;28;20030;-66
2023/09/02 06:57:21;;;;;;;4.30;2.00;;;;;;;;;;4982248;28;20579;-66
2023/09/02 06:59:46;;;;;;;7.35;2.20;;;;;;;;;;4962604;28;20035;-66
2023/09/02 07:02:12;;;;;;;4.82;2.15;;;;;;;;;;4971117;28;20046;-66
2023/09/02 07:04:37;;;;;;;3.28;2.10;;;;;;;;;;4963609;28;20036;-66
2023/09/02 07:07:03;;;;;;;6.78;2.30;;;;;;;;;;4969496;28;20380;-66
2023/09/02 07:09:28;;;;;;;2.88;1.92;;;;;;;;;;4965190;28;20170;-66
2023/09/02 07:11:55;;;;;;;4.75;2.13;;;;;;;;;;4968591;28;20050;-66
2023/09/02 07:14:20;;;;;;;6.55;2.25;;;;;;;;;;4966415;28;20047;-66
2023/09/02 07:16:46;;;;;;;4.38;1.95;;;;;;;;;;4967560;28;20153;-66
2023/09/02 07:19:11;;;;;;;3.70;2.22;;;;;;;;;;4967946;28;20082;-67
2023/09/02 07:21:36;;;;;;;3.20;2.20;;;;;;;;;;4966385;28;20081;-67
2023/09/02 07:24:02;;;;;;;3.40;2.30;;;;;;;;;;4969090;28;20064;-67
2023/09/02 07:26:32;;;;;;;5.00;2.40;;;;;;;;;;4965065;28;20127;-67
2023/09/02 07:28:57;;;;;;;4.63;1.92;;;;;;;;;;4969385;28;20094;-67
2023/09/02 07:31:23;;;;;;;6.63;2.30;;;;;;;;;;4970673;28;20031;-66
2023/09/02 07:33:48;;;;;;;2.75;1.80;;;;;;;;;;4990271;28;20029;-66
2023/09/02 07:36:14;;;;;;;5.18;2.15;;;;;;;;;;4971523;28;20042;-66
2023/09/02 07:38:40;;;;;;;5.50;2.20;;;;;;;;;;4961994;28;20027;-66
2023/09/02 07:41:06;;;;;;;3.50;2.15;;;;;;;;;;4972383;28;20488;-66
2023/09/02 07:43:32;;;;;;;3.22;2.33;;;;;;;;;;4964595;28;20031;-67
2023/09/02 07:45:58;;;;;;;4.47;2.53;;;;;;;;;;4969530;28;20031;-67
2023/09/02 07:48:24;;;;;;;6.10;2.50;;;;;;;;;;4963653;28;20039;-67
2023/09/02 07:50:49;;;;;;;4.88;2.20;;;;;;;;;;4970625;28;20027;-66
2023/09/02 07:53:14;;;;;;;3.63;2.17;;;;;;;;;;4962226;28;20476;-66
2023/09/02 07:55:40;;;;;;;5.47;1.90;;;;;;;;;;4972096;28;20034;-67
2023/09/02 07:58:06;;;;;;;3.50;2.10;;;;;;;;;;4960614;28;20567;-67
2023/09/02 08:00:35;;;;;;;4.72;2.33;;;;;;;;;;4976181;28;20357;-67
2023/09/02 08:03:01;;;;;;;5.30;2.50;;;;;;;;;;4972915;28;20114;-67
2023/09/02 08:05:27;;;;;;;3.92;2.15;;;;;;;;;;4959440;28;20074;-67
2023/09/02 08:07:52;;;;;;;2.85;1.80;;;;;;;;;;4974160;28;20035;-67
2023/09/02 08:10:17;;;;;;;2.55;1.77;;;;;;;;;;4959519;28;20059;-67
2023/09/02 08:12:43;;;;;;;3.50;1.75;;;;;;;;;;4994644;28;20033;-66
2023/09/02 08:15:12;;;;;;;3.95;2.05;;;;;;;;;;4975809;28;20378;-66
2023/09/02 08:17:40;;;;;;;3.22;1.75;;;;;;;;;;4956737;29;20062;-65
2023/09/02 08:20:06;;;;;;;4.93;2.05;;;;;;;;;;4960033;28;20046;-66
2023/09/02 08:22:32;;;;;;;3.65;1.90;;;;;;;;;;4972827;28;20113;-67
2023/09/02 08:24:57;;;;;;;3.25;1.63;;;;;;;;;;4969295;28;20060;-67
2023/09/02 08:27:24;;;;;;;2.47;1.50;;;;;;;;;;4962808;28;20031;-67
2023/09/02 08:29:50;;;;;;;3.83;1.90;;;;;;;;;;4974293;28;20194;-67
2023/09/02 08:32:15;;;;;;;2.38;1.55;;;;;;;;;;4956197;28;20521;-67
2023/09/02 08:34:41;;;;;;;2.67;1.50;;;;;;;;;;4974329;28;20031;-67
2023/09/02 08:37:06;;;;;;;3.70;1.70;;;;;;;;;;4961017;28;20023;-66
2023/09/02 08:39:32;;;;;;;3.00;1.63;;;;;;;;;;4967028;28;20374;-67
2023/09/02 08:41:58;;;;;;;4.45;1.88;;;;;;;;;;4968589;28;20396;-67
2023/09/02 08:44:26;;;;;;;2.42;1.63;;;;;;;;;;4968088;28;20027;-67
2023/09/02 08:46:53;;;;;;;3.38;1.58;;;;;;;;;;4967793;28;20034;-67
2023/09/02 08:49:20;;;;;;;2.65;1.58;;;;;;;;;;4967214;28;20433;-67
2023/09/02 08:51:46;;;;;;;4.47;1.70;;;;;;;;;;4967932;28;20473;-66
2023/09/02 08:54:14;;;;;;;3.03;1.30;;;;;;;;;;4972497;28;20495;-67
2023/09/02 08:56:43;;;;;;;4.32;1.40;;;;;;;;;;4969027;28;20081;-67
2023/09/02 08:59:09;;;;;;;4.18;1.75;;;;;;;;;;4979548;28;20130;-67
2023/09/02 09:01:40;;;;;;;3.17;1.40;;;;;;;;;;4981483;28;20392;-67
2023/09/02 09:04:07;;;;;;;4.47;1.50;;;;;;;;;;4975366;28;20027;-67
2023/09/02 09:06:35;;;;;;;4.15;1.60;;;;;;;;;;4975044;28;20093;-67
2023/09/02 09:09:01;;;;;;;4.37;1.47;;;;;;;;;;4974434;28;20045;-67
2023/09/02 09:11:28;;;;;;;2.03;1.20;;;;;;;;;;4974543;28;20038;-67
2023/09/02 09:13:56;;;;;;;2.70;1.33;;;;;;;;;;4982324;28;20496;-67
2023/09/02 09:16:31;;;;;;;2.85;1.38;;;;;;;;;;4977233;28;20031;-67
2023/09/02 09:19:00;;;;;;;2.78;1.52;;;;;;;;;;4974811;28;20027;-67
2023/09/02 09:21:26;;;;;;;4.40;1.60;;;;;;;;;;4974504;28;20045;-66
2023/09/02 09:23:51;;;;;;;2.10;1.27;;;;;;;;;;4974599;28;20019;-66
2023/09/02 09:26:18;;;;;;;3.50;1.30;;;;;;;;;;4974359;28;20038;-66
2023/09/02 09:28:58;;;;;;;2.80;1.33;;;;;;;;;;4966538;28;20038;-67
2023/09/02 09:31:24;;;;;;;2.78;1.17;;;;;;;;;;4967659;28;20049;-67
2023/09/02 09:34:01;;;;;;;4.60;1.20;;;;;;;;;;4974684;28;20063;-67
2023/09/02 09:36:29;;;;;;;2.38;1.23;;;;;;;;;;4974592;28;20054;-66
2023/09/02 09:38:56;;;;;;;2.03;1.13;;;;;;;;;;4974249;28;20038;-66
2023/09/02 09:41:23;;;;;;;4.82;1.40;;;;;;;;;;4974193;28;20035;-67
2023/09/02 09:44:10;;;;;;;3.92;1.30;;;;;;;;;;4974290;28;20417;-67
2023/09/02 09:46:56;;;;;;;2.45;1.30;;;;;;;;;;4974388;28;20107;-67
2023/09/02 09:49:25;;;;;;;2.88;1.10;;;;;;;;;;4962540;28;20106;-67
2023/09/02 09:52:18;;;;;;;4.40;1.73;;;;;;;;;;4981059;28;20464;-67
2023/09/02 09:54:47;;;;;;;5.38;1.48;;;;;;;;;;4967145;28;20129;-67
2023/09/02 09:57:29;;;;;;;3.05;1.50;;;;;;;;;;4974201;28;20214;-67
2023/09/02 09:59:54;;;;;;;3.20;1.20;;;;;;;;;;4962746;28;20026;-67
2023/09/02 10:02:21;;;;;;;2.90;1.40;;;;;;;;;;4962102;28;20495;-67
2023/09/02 10:04:53;;;;;;;3.17;1.20;;;;;;;;;;4973834;28;20027;-67
2023/09/02 10:07:26;;;;;;;3.05;1.25;;;;;;;;;;4973746;28;20038;-67
2023/09/02 10:09:54;;;;;;;3.08;1.50;;;;;;;;;;4962864;28;20110;-67
2023/09/02 10:12:21;;;;;;;2.28;1.25;;;;;;;;;;4976630;28;20030;-67
2023/09/02 10:14:48;;;;;;;4.32;1.63;;;;;;;;;;4973607;28;20105;-67
2023/09/02 10:17:14;;;;;;;3.50;1.25;;;;;;;;;;4973728;28;20042;-67
2023/09/02 10:19:40;;;;;;;1.77;1.08;;;;;;;;;;4973604;28;20121;-67
2023/09/02 10:22:06;;;;;;;2.42;1.20;;;;;;;;;;4972905;28;20027;-64
2023/09/02 10:24:40;;;;;;;1.85;1.27;;;;;;;;;;4973718;28;20085;-66
2023/09/02 10:27:14;;;;;;;2.40;1.13;;;;;;;;;;4973846;28;20461;-67
2023/09/02 10:29:43;;;;;;;5.78;1.30;;;;;;;;;;4973542;28;20041;-67
2023/09/02 10:32:12;;;;;;;1.67;1.10;;;;;;;;;;4973691;28;20034;-67
2023/09/02 10:34:56;;;;;;;3.42;1.10;;;;;;;;;;4973757;28;20358;-67
2023/09/02 10:37:25;;;;;;;2.33;1.20;;;;;;;;;;4973497;28;20069;-67
2023/09/02 10:39:58;;;;;;;3.88;1.30;;;;;;;;;;4973724;28;20384;-67
2023/09/02 10:42:25;;;;;;;3.38;1.10;;;;;;;;;;4973634;28;20063;-67
2023/09/02 10:44:52;;;;;;;5.68;1.00;;;;;;;;;;4973487;28;20030;-67
2023/09/02 10:47:18;;;;;;;3.35;1.35;;;;;;;;;;4973423;28;20093;-67
2023/09/02 10:49:44;;;;;;;2.42;1.10;;;;;;;;;;4975322;28;20448;-71
2023/09/02 10:52:10;;;;;;;3.33;1.20;;;;;;;;;;4983938;28;20522;-68
2023/09/02 10:55:10;;;;;;;4.00;1.08;;;;;;;;;;4973402;28;20034;-66
2023/09/02 10:57:46;;;;;;;2.40;1.08;;;;;;;;;;4973358;28;20130;-67
2023/09/02 11:00:13;;;;;;;4.70;1.45;;;;;;;;;;4973264;28;20027;-67
2023/09/02 11:02:39;;;;;;;10.35;3.10;;;;;;;;;;4973332;28;20033;-66
2023/09/02 11:05:05;;;;;;;5.90;1.00;;;;;;;;;;4973330;28;20388;-66
2023/09/02 11:07:33;;;;;;;2.38;1.10;;;;;;;;;;4972696;28;20034;-66
2023/09/02 11:09:59;;;;;;;4.65;1.23;;;;;;;;;;4973087;28;20141;-66
2023/09/02 11:12:25;;;;;;;2.00;1.25;;;;;;;;;;4973273;28;20118;-66
2023/09/02 11:15:09;;;;;;;3.17;1.10;;;;;;;;;;4972809;28;20521;-67
2023/09/02 11:17:35;;;;;;;2.38;1.00;;;;;;;;;;4965461;28;20057;-66
2023/09/02 11:20:04;;;;;;;1.95;1.10;;;;;;;;;;4972739;28;20031;-66
2023/09/02 11:23:01;;;;;;;3.22;1.00;;;;;;;;;;4973129;28;20042;-67
2023/09/02 11:25:27;;;;;;;5.07;1.20;;;;;;;;;;4960005;28;20137;-66
2023/09/02 11:27:55;;;;;;;3.70;1.10;;;;;;;;;;4972931;28;20035;-66
2023/09/02 11:30:20;;;;;;;1.73;1.00;;;;;;;;;;4973047;28;20392;-66
2023/09/02 11:32:46;;;;;;;2.85;1.05;;;;;;;;;;4975174;28;20035;-66
2023/09/02 11:35:16;;;;;;;2.65;1.10;;;;;;;;;;4976037;28;20113;-67
2023/09/02 11:37:41;;;;;;;2.45;1.00;;;;;;;;;;4976191;28;20035;-66
2023/09/02 11:40:16;;;;;;;4.78;1.08;;;;;;;;;;4975860;28;20041;-67
2023/09/02 11:43:01;;;;;;;2.00;0.88;;;;;;;;;;4976022;28;20138;-66
2023/09/02 11:45:30;;;;;;;2.13;1.20;;;;;;;;;;4975896;28;20031;-67
2023/09/02 11:47:55;;;;;;;2.38;1.00;;;;;;;;;;4974837;28;20365;-66
2023/09/02 11:50:22;;;;;;;2.35;1.20;;;;;;;;;;4976988;28;20030;-66
2023/09/02 11:52:52;;;;;;;4.75;1.17;;;;;;;;;;4976197;28;20046;-66
2023/09/02 11:55:18;;;;;;;2.03;0.95;;;;;;;;;;4976090;28;20073;-66
2023/09/02 11:57:45;;;;;;;1.95;1.05;;;;;;;;;;4976463;28;20114;-66
2023/09/02 12:00:16;;;;;;;2.65;1.10;;;;;;;;;;4960478;28;20031;-66
2023/09/02 12:02:42;;;;;;;2.33;1.20;;;;;;;;;;4960228;28;20030;-66
2023/09/02 12:05:08;;;;;;;1.38;0.80;;;;;;;;;;4975649;28;20498;-66
2023/09/02 12:07:38;;;;;;;1.08;0.70;;;;;;;;;;4975838;28;20035;-66
2023/09/02 12:10:10;;;;;;;2.70;1.15;;;;;;;;;;4975515;28;20058;-66
2023/09/02 12:12:45;;;;;;;1.90;0.90;;;;;;;;;;4975915;28;20082;-66
2023/09/02 12:15:16;;;;;;;2.40;1.00;;;;;;;;;;4975668;28;20054;-66
2023/09/02 12:17:42;;;;;;;3.03;1.35;;;;;;;;;;4975456;28;20035;-66
2023/09/02 12:20:11;;;;;;;1.90;1.10;;;;;;;;;;4987352;28;20894;-66
2023/09/02 12:22:37;;;;;;;4.30;1.20;;;;;;;;;;4975592;28;20496;-66
2023/09/02 12:25:13;;;;;;;2.65;1.40;;;;;;;;;;4975584;28;20401;-66
2023/09/02 12:27:39;;;;;;;3.72;1.35;;;;;;;;;;4975549;28;20093;-66
2023/09/02 12:30:05;;;;;;;3.70;1.20;;;;;;;;;;4975335;28;20030;-66
2023/09/02 12:32:31;;;;;;;7.20;1.80;;;;;;;;;;4974899;28;20105;-66
2023/09/02 12:34:56;;;;;;;2.17;1.30;;;;;;;;;;4975168;28;20122;-66
2023/09/02 12:37:22;;;;;;;2.03;1.08;;;;;;;;;;4975098;28;20062;-66
2023/09/02 12:39:50;;;;;;;3.22;1.10;;;;;;;;;;4975285;28;20496;-66
2023/09/02 12:42:22;;;;;;;3.20;1.10;;;;;;;;;;4978598;28;20037;-66
2023/09/02 12:44:59;;;;;;;3.13;1.38;;;;;;;;;;4990398;28;20122;-66
2023/09/02 12:47:26;;;;;;;2.53;1.05;;;;;;;;;;4974865;28;20051;-66
2023/09/02 12:49:56;;;;;;;2.30;1.10;;;;;;;;;;4978260;28;20026;-66
2023/09/02 12:52:23;;;;;;;2.45;1.25;;;;;;;;;;4991182;28;20030;-66
2023/09/02 12:54:59;;;;;;;2.90;1.50;;;;;;;;;;4975133;28;20030;-66
2023/09/02 12:57:26;;;;;;;3.00;1.27;;;;;;;;;;4980685;28;20539;-66
2023/09/02 12:59:52;;;;;;;4.40;1.55;;;;;;;;;;4975074;28;20027;-66
2023/09/02 13:02:18;;;;;;;3.17;1.52;;;;;;;;;;4974788;28;20027;-66
2023/09/02 13:04:44;;;;;;;4.78;1.38;;;;;;;;;;4973524;28;20022;-67
2023/09/02 13:07:09;;;;;;;2.65;1.33;;;;;;;;;;4974537;28;20070;-66
2023/09/02 13:09:35;;;;;;;2.20;1.10;;;;;;;;;;4974600;28;20093;-66
2023/09/02 13:12:02;;;;;;;2.80;1.33;;;;;;;;;;4974585;28;20038;-66
2023/09/02 13:14:28;;;;;;;4.65;1.40;;;;;;;;;;4974796;28;20158;-66
2023/09/02 13:16:54;;;;;;;2.58;1.30;;;;;;;;;;4974421;28;20034;-66
2023/09/02 13:19:21;;;;;;;3.08;1.60;;;;;;;;;;4974520;28;20569;-66
2023/09/02 13:21:47;;;;;;;3.88;1.60;;;;;;;;;;4980743;28;20026;-66
2023/09/02 13:24:20;;;;;;;3.88;1.52;;;;;;;;;;4988031;28;20122;-66
2023/09/02 13:26:46;;;;;;;3.85;1.40;;;;;;;;;;4974674;28;20073;-66
2023/09/02 13:29:22;;;;;;;4.32;1.60;;;;;;;;;;4974355;28;20035;-66
2023/09/02 13:31:47;;;;;;;3.10;1.67;;;;;;;;;;4974241;28;20029;-66
2023/09/02 13:34:30;;;;;;;3.17;1.65;;;;;;;;;;4974610;28;20035;-66
2023/09/02 13:37:20;;;;;;;3.63;1.48;;;;;;;;;;4974467;28;20034;-66
2023/09/02 13:39:52;;;;;;;5.30;1.60;;;;;;;;;;4974542;28;20425;-68
2023/09/02 13:42:18;;;;;;;3.55;1.30;;;;;;;;;;4974330;28;20030;-67
2023/09/02 13:44:48;;;;;;;3.35;1.40;;;;;;;;;;4974361;28;20042;-66
2023/09/02 13:47:15;;;;;;;3.80;1.40;;;;;;;;;;4973976;28;20033;-66
2023/09/02 13:49:42;;;;;;;2.53;1.50;;;;;;;;;;4975552;28;20042;-66
2023/09/02 13:52:10;;;;;;;3.10;1.50;;;;;;;;;;4976946;28;20046;-66
2023/09/02 13:54:36;;;;;;;3.70;1.50;;;;;;;;;;4973670;28;20061;-66
2023/09/02 13:57:02;;;;;;;4.55;1.60;;;;;;;;;;4974209;28;20449;-66
2023/09/02 13:59:28;;;;;;;1.77;1.15;;;;;;;;;;4973805;28;20031;-67
2023/09/02 14:01:53;;;;;;;5.32;1.83;;;;;;;;;;4973697;28;20500;-66
2023/09/02 14:04:19;;;;;;;5.18;1.50;;;;;;;;;;4973894;28;20610;-66
2023/09/02 14:06:45;;;;;;;4.00;1.58;;;;;;;;;;4973830;28;20544;-64
2023/09/02 14:09:22;;;;;;;4.13;1.80;;;;;;;;;;4973844;28;20045;-66
2023/09/02 14:11:47;;;;;;;3.22;1.27;;;;;;;;;;4973888;28;20074;-65
2023/09/02 14:14:18;;;;;;;2.97;1.20;;;;;;;;;;4973272;28;20046;-68
2023/09/02 14:16:44;;;;;;;5.63;1.80;;;;;;;;;;4973662;28;20035;-68
2023/09/02 14:19:09;;;;;;;84.15;12.20;;;;;;;;;;4973389;28;20035;-65
2023/09/02 14:21:35;;;;;;;160.18;23.35;;;;;;;;;;4974027;28;20110;-66
2023/09/02 14:24:00;;;;;;;239.85;32.30;;;;;;;;;;4954615;28;20123;-66
2023/09/02 14:26:29;;;;;;;14.60;2.92;;;;;;;;;;4954538;28;20035;-66
2023/09/02 14:28:58;;;;;;;5.10;2.72;;;;;;;;;;4972350;28;20035;-66
2023/09/02 14:31:24;;;;;;;47.88;8.45;;;;;;;;;;4955730;28;20073;-66
2023/09/02 14:33:49;;;;;;;22.50;5.65;;;;;;;;;;4971623;28;20063;-66
2023/09/02 14:36:15;;;;;;;59.60;11.60;;;;;;;;;;4957160;28;20042;-65
2023/09/02 14:38:41;;;;;;;23.90;6.35;;;;;;;;;;4970374;28;20114;-66
2023/09/02 14:41:06;;;;;;;9.00;2.90;;;;;;;;;;4956161;28;20433;-66
2023/09/02 14:43:32;;;;;;;22.50;5.75;;;;;;;;;;4967059;28;20169;-66